Time;durP1;ratioP1;P1;durP2;ratioP2;P2;SDS_P1;SDS_P2;PMS_P1;PMS_P2;Temp;Humidity;BMP_temperature;BMP_pressure;BME280_temperature;BME280_humidity;BME280_pressure;Samples;Min_cycle;Max_cycle;Signal;HPM_P1;HPM_P2
2023/10/21 00:01:54;;;;;;;33.80;14.70;;;;;;;6.56;100.00;98384.66;214327;1286;139735;-84
2023/10/21 00:06:55;;;;;;;23.50;12.60;;;;;;;6.58;100.00;98380.11;215102;1286;138963;-84
2023/10/21 00:11:56;;;;;;;24.10;12.30;;;;;;;6.58;100.00;98360.66;214615;1285;139625;-84
2023/10/21 00:16:56;;;;;;;30.70;14.40;;;;;;;6.58;100.00;98339.35;214953;1288;138545;-84
2023/10/21 00:21:58;;;;;;;191.10;52.60;;;;;;;6.59;100.00;98355.66;214161;1285;139809;-84
2023/10/21 00:26:59;;;;;;;34.80;16.20;;;;;;;6.63;100.00;98354.78;214882;1285;138700;-85
2023/10/21 00:32:01;;;;;;;54.20;20.40;;;;;;;6.65;100.00;98356.10;214197;1285;139564;-85
2023/10/21 00:37:02;;;;;;;78.20;26.50;;;;;;;6.66;100.00;98363.89;215179;1288;139162;-84
2023/10/21 00:42:05;;;;;;;33.80;14.30;;;;;;;6.67;100.00;98341.48;214953;1288;140373;-84
2023/10/21 00:47:05;;;;;;;49.30;18.80;;;;;;;6.69;100.00;98350.68;215309;1286;138557;-83
2023/10/21 00:52:06;;;;;;;44.60;17.60;;;;;;;6.71;100.00;98349.18;214629;1285;139688;-84
2023/10/21 00:57:09;;;;;;;21.70;12.10;;;;;;;6.74;100.00;98341.35;215236;1288;138976;-84
2023/10/21 01:02:12;;;;;;;21.00;12.10;;;;;;;6.75;100.00;98318.62;214806;1286;140023;-84
2023/10/21 01:07:16;;;;;;;43.90;22.00;;;;;;;6.75;100.00;98300.10;215096;1288;139131;-84
2023/10/21 01:12:17;;;;;;;77.50;28.80;;;;;;;6.76;100.00;98326.41;214152;1285;139576;-84
2023/10/21 01:17:17;;;;;;;36.90;16.10;;;;;;;6.79;100.00;98329.13;214883;1285;97752;-84
2023/10/21 01:22:18;;;;;;;44.00;20.50;;;;;;;6.81;100.00;98325.21;214256;1288;139680;-84
2023/10/21 01:27:18;;;;;;;24.50;13.90;;;;;;;6.82;100.00;98318.27;214727;1288;138905;-85
2023/10/21 01:32:19;;;;;;;25.50;14.90;;;;;;;6.84;100.00;98346.34;213933;1288;139677;-85
2023/10/21 01:37:20;;;;;;;28.40;13.30;;;;;;;6.88;100.00;98369.84;214868;1288;138541;-84
2023/10/21 01:42:21;;;;;;;29.30;15.30;;;;;;;6.91;100.00;98388.95;214082;1288;140087;-85
2023/10/21 01:47:22;;;;;;;27.00;17.60;;;;;;;6.95;100.00;98425.09;215112;1287;96720;-86
2023/10/21 01:52:23;;;;;;;24.70;15.50;;;;;;;6.99;100.00;98450.14;214297;1286;139903;-84
2023/10/21 01:57:23;;;;;;;24.90;13.90;;;;;;;7.04;100.00;98472.54;215222;1288;139539;-85
2023/10/21 02:02:25;;;;;;;82.40;31.40;;;;;;;7.08;100.00;98478.67;213998;1289;140678;-85
2023/10/21 02:07:25;;;;;;;38.20;20.10;;;;;;;7.08;100.00;98451.88;214566;1289;139094;-84
2023/10/21 02:12:28;;;;;;;24.30;17.80;;;;;;;7.09;100.00;98418.52;214093;1288;139577;-84
2023/10/21 02:17:28;;;;;;;26.60;17.30;;;;;;;7.11;100.00;98403.80;214742;1289;97536;-85
2023/10/21 02:22:29;;;;;;;22.50;11.80;;;;;;;7.14;100.00;98419.17;214139;1288;139443;-84
2023/10/21 02:27:29;;;;;;;25.20;14.20;;;;;;;7.15;100.00;98417.45;214819;1285;138367;-85
2023/10/21 02:32:31;;;;;;;22.50;15.30;;;;;;;7.16;100.00;98409.09;214073;1288;140752;-85
2023/10/21 02:37:32;;;;;;;25.30;13.20;;;;;;;7.18;100.00;98406.25;214835;1285;138500;-85
2023/10/21 02:42:32;;;;;;;94.50;39.00;;;;;;;7.19;100.00;98417.25;214097;1287;139569;-84
2023/10/21 02:47:34;;;;;;;56.30;24.60;;;;;;;7.21;100.00;98435.23;214938;1286;97954;-85
2023/10/21 02:52:38;;;;;;;35.70;20.50;;;;;;;7.24;100.00;98463.48;214092;1288;139799;-85
2023/10/21 02:57:38;;;;;;;41.30;22.90;;;;;;;7.28;100.00;98472.37;214727;1288;138478;-85
2023/10/21 03:02:39;;;;;;;24.50;17.70;;;;;;;7.30;100.00;98492.29;214096;1285;139592;-84
2023/10/21 03:07:39;;;;;;;34.50;24.20;;;;;;;7.32;100.00;98485.16;214827;1286;139618;-83
2023/10/21 03:12:40;;;;;;;23.70;14.10;;;;;;;7.33;100.00;98482.02;214222;1288;140081;-84
2023/10/21 03:17:40;;;;;;;21.60;13.00;;;;;;;7.35;100.00;98500.14;214838;1288;96583;-85
2023/10/21 03:22:43;;;;;;;24.10;19.30;;;;;;;7.37;100.00;98526.87;214303;1288;139620;-85
2023/10/21 03:27:45;;;;;;;62.10;47.10;;;;;;;7.41;100.00;98535.91;215110;1288;139429;-86
2023/10/21 03:32:46;;;;;;;42.90;37.20;;;;;;;7.46;100.00;98543.08;214421;1286;140157;-86
2023/10/21 03:37:47;;;;;;;72.60;29.50;;;;;;;7.50;100.00;98544.76;214767;1289;138667;-85
2023/10/21 03:42:47;;;;;;;60.70;25.30;;;;;;;7.51;100.00;98533.11;214207;1289;139375;-85
2023/10/21 03:47:48;;;;;;;36.50;16.40;;;;;;;7.54;100.00;98533.41;214939;1288;96734;-85
2023/10/21 03:52:49;;;;;;;25.60;13.10;;;;;;;7.54;100.00;98505.73;214243;1288;140009;-85
2023/10/21 03:57:49;;;;;;;24.40;13.40;;;;;;;7.54;100.00;98496.02;214654;1285;138617;-84
2023/10/21 04:02:50;;;;;;;23.30;11.40;;;;;;;7.56;100.00;98488.58;214081;1288;139485;-85
2023/10/21 04:07:50;;;;;;;24.20;12.10;;;;;;;7.56;100.00;98479.80;214647;1289;139728;-84
2023/10/21 04:12:51;;;;;;;44.20;21.90;;;;;;;7.58;100.00;98491.22;214028;1285;139835;-84
2023/10/21 04:17:51;;;;;;;28.40;14.20;;;;;;;7.60;100.00;98501.52;214562;1289;96747;-85
2023/10/21 04:22:52;;;;;;;25.80;13.50;;;;;;;7.63;100.00;98501.97;214003;1289;139944;-84
2023/10/21 04:27:53;;;;;;;24.30;11.90;;;;;;;7.65;100.00;98507.04;214583;1289;138360;-84
2023/10/21 04:32:53;;;;;;;20.10;10.60;;;;;;;7.66;100.00;98513.05;213977;1292;140101;-85
2023/10/21 04:37:55;;;;;;;20.70;10.70;;;;;;;7.69;100.00;98515.05;215220;1289;138949;-85
2023/10/21 04:42:55;;;;;;;20.30;10.70;;;;;;;7.70;100.00;98485.78;214466;1288;139733;-85
2023/10/21 04:47:56;;;;;;;21.00;10.70;;;;;;;7.73;100.00;98501.81;215222;1288;96616;-84
2023/10/21 04:52:56;;;;;;;23.40;11.40;;;;;;;7.77;100.00;98502.79;214453;1289;139506;-84
2023/10/21 04:57:57;;;;;;;22.20;12.40;;;;;;;7.77;100.00;98528.45;215121;1286;139025;-84
2023/10/21 05:02:58;;;;;;;20.20;10.80;;;;;;;7.78;100.00;98524.38;214801;1286;140962;-85
2023/10/21 05:07:58;;;;;;;20.90;11.50;;;;;;;7.80;100.00;98531.55;214704;1286;138515;-84
2023/10/21 05:12:59;;;;;;;19.20;11.90;;;;;;;7.85;100.00;98529.40;214090;1289;140773;-86
2023/10/21 05:17:59;;;;;;;20.70;11.80;;;;;;;7.87;100.00;98541.13;214700;1288;96656;-85
2023/10/21 05:23:00;;;;;;;22.20;12.00;;;;;;;7.87;100.00;98554.19;213844;1285;139358;-85
2023/10/21 05:28:00;;;;;;;23.10;12.20;;;;;;;7.90;100.00;98587.34;214758;1286;138846;-85
2023/10/21 05:33:01;;;;;;;26.30;15.00;;;;;;;7.93;100.00;98579.79;213970;1288;139449;-85
2023/10/21 05:38:01;;;;;;;26.10;15.40;;;;;;;7.93;100.00;98592.32;214737;1288;140537;-85
2023/10/21 05:43:02;;;;;;;31.90;22.50;;;;;;;7.97;100.00;98624.36;214330;1285;139832;-84
2023/10/21 05:48:03;;;;;;;28.80;16.30;;;;;;;8.00;100.00;98643.44;214607;1289;97535;-85
2023/10/21 05:53:03;;;;;;;23.70;13.20;;;;;;;8.01;100.00;98656.59;214061;1291;140043;-85
2023/10/21 05:58:04;;;;;;;29.10;14.90;;;;;;;8.03;100.00;98648.59;214507;1288;139544;-85
2023/10/21 06:03:05;;;;;;;19.00;11.50;;;;;;;8.02;100.00;98649.14;214410;1288;139826;-85
2023/10/21 06:08:07;;;;;;;25.70;12.70;;;;;;;8.06;100.00;98658.44;214767;1286;138570;-85
2023/10/21 06:13:07;;;;;;;20.90;12.10;;;;;;;8.09;100.00;98676.33;214254;1288;139598;-84
2023/10/21 06:18:07;;;;;;;23.70;13.40;;;;;;;8.14;100.00;98702.20;214928;1286;96613;-86
2023/10/21 06:23:09;;;;;;;26.10;15.10;;;;;;;8.20;100.00;98717.29;214374;1288;139837;-86
2023/10/21 06:28:11;;;;;;;23.10;14.10;;;;;;;8.23;100.00;98723.39;214894;1285;138649;-86
2023/10/21 06:33:11;;;;;;;212.90;113.50;;;;;;;8.22;100.00;98717.05;214251;1285;139647;-86
2023/10/21 06:38:12;;;;;;;76.60;31.10;;;;;;;8.23;100.00;98712.66;214793;1285;139790;-84
2023/10/21 06:43:12;;;;;;;57.20;25.00;;;;;;;8.23;100.00;98702.48;214078;1286;139765;-85
2023/10/21 06:48:13;;;;;;;61.40;24.60;;;;;;;8.28;100.00;98709.48;214821;1288;138683;-86
2023/10/21 06:53:14;;;;;;;42.60;19.80;;;;;;;8.35;100.00;98711.08;214012;1285;177937;-87
2023/10/21 06:58:14;;;;;;;39.20;17.90;;;;;;;8.42;100.00;98705.23;214806;1284;138399;-87
2023/10/21 07:03:15;;;;;;;47.30;22.10;;;;;;;8.49;100.00;98705.64;213831;1286;144476;-88
2023/10/21 07:08:16;;;;;;;39.80;19.50;;;;;;;8.58;100.00;98719.66;214719;1288;138567;-87
2023/10/21 07:13:16;;;;;;;51.90;23.80;;;;;;;8.69;100.00;98718.71;214388;1288;139764;-88
2023/10/21 07:18:17;;;;;;;49.20;22.90;;;;;;;8.80;100.00;98714.14;215342;1288;138987;-87
2023/10/21 07:23:18;;;;;;;40.10;19.30;;;;;;;8.92;100.00;98720.52;214998;1288;139687;-86
2023/10/21 07:28:18;;;;;;;38.00;17.90;;;;;;;8.99;100.00;98718.89;215330;1287;138421;-87
2023/10/21 07:33:19;;;;;;;38.40;19.80;;;;;;;9.03;100.00;98726.30;214272;1284;139327;-87
2023/10/21 07:38:20;;;;;;;37.50;18.90;;;;;;;9.10;100.00;98742.15;214624;1288;139333;-86
2023/10/21 07:43:21;;;;;;;39.40;21.30;;;;;;;9.15;100.00;98748.68;214154;1285;139709;-87
2023/10/21 07:48:22;;;;;;;44.60;22.30;;;;;;;9.22;100.00;98759.59;214808;1285;139291;-86
2023/10/21 07:53:23;;;;;;;38.00;21.50;;;;;;;9.27;100.00;98773.10;214224;1286;139653;-85
2023/10/21 07:58:23;;;;;;;36.20;20.60;;;;;;;9.37;100.00;98790.17;214677;1284;138491;-85
2023/10/21 08:03:24;;;;;;;33.30;19.20;;;;;;;9.42;100.00;98799.85;214187;1286;139554;-86
2023/10/21 08:08:25;;;;;;;33.70;19.00;;;;;;;9.47;100.00;98800.96;214653;1285;138613;-87
2023/10/21 08:13:26;;;;;;;29.40;17.70;;;;;;;9.54;100.00;98804.73;214080;1285;139895;-85
2023/10/21 08:18:26;;;;;;;34.90;19.20;;;;;;;9.58;100.00;98814.73;214853;1285;138665;-85
2023/10/21 08:23:27;;;;;;;34.50;18.10;;;;;;;9.64;100.00;98816.48;214318;1285;139646;-85
2023/10/21 08:28:28;;;;;;;38.60;19.60;;;;;;;9.69;100.00;98823.16;214784;1285;138513;-86
2023/10/21 08:33:29;;;;;;;40.90;22.50;;;;;;;9.73;100.00;98835.29;214602;1283;139543;-86
2023/10/21 08:38:29;;;;;;;42.00;23.90;;;;;;;9.73;100.00;98845.97;215186;1285;138552;-86
2023/10/21 08:43:31;;;;;;;44.30;23.50;;;;;;;9.68;100.00;98835.35;214581;1285;140093;-86
2023/10/21 08:48:34;;;;;;;50.70;24.20;;;;;;;9.77;100.00;98846.47;214789;1285;138483;-86
2023/10/21 08:53:41;;;;;;;53.60;24.50;;;;;;;9.85;100.00;98851.09;214409;1285;139536;-86
2023/10/21 08:58:42;;;;;;;46.90;23.20;;;;;;;9.89;100.00;98859.98;214943;1285;138293;-89
2023/10/21 09:03:43;;;;;;;44.70;23.70;;;;;;;9.91;100.00;98864.36;214061;1288;139711;-87
2023/10/21 09:08:47;;;;;;;51.60;25.60;;;;;;;9.94;100.00;98880.49;214892;1284;139144;-88
2023/10/21 09:13:49;;;;;;;46.60;22.60;;;;;;;10.00;100.00;98891.66;214111;1285;139972;-87
2023/10/21 09:19:07;;;;;;;50.70;25.60;;;;;;;10.03;100.00;98901.46;214666;1284;140155;-85
2023/10/21 09:24:10;;;;;;;49.20;25.70;;;;;;;10.08;100.00;98910.53;214644;1285;138983;-87
2023/10/21 09:29:16;;;;;;;52.70;26.90;;;;;;;10.18;100.00;98914.73;214454;1288;140107;-86
2023/10/21 09:34:32;;;;;;;71.30;30.20;;;;;;;10.23;100.00;98916.48;214834;1286;138891;-87
2023/10/21 09:39:36;;;;;;;63.70;31.10;;;;;;;10.31;100.00;98912.44;214289;1283;140455;-85
2023/10/21 09:44:38;;;;;;;65.10;30.60;;;;;;;10.38;100.00;98907.50;214548;1287;138986;-88
2023/10/21 09:49:40;;;;;;;58.10;28.40;;;;;;;10.41;100.00;98897.71;214459;1283;140903;-88
2023/10/21 09:54:47;;;;;;;50.20;28.20;;;;;;;10.46;100.00;98895.67;214797;1288;138842;-89
2023/10/21 09:59:49;;;;;;;46.40;27.10;;;;;;;10.53;100.00;98907.77;214550;1287;140071;-88
2023/10/21 10:04:53;;;;;;;46.20;24.50;;;;;;;10.59;100.00;98921.77;215050;1285;139019;-95
2023/10/21 10:09:56;;;;;;;44.80;25.00;;;;;;;10.64;100.00;98937.34;214328;1288;141462;-87
2023/10/21 10:14:56;;;;;;;43.00;26.60;;;;;;;10.69;100.00;98929.33;215070;1287;139018;-89
2023/10/21 10:19:57;;;;;;;44.70;25.50;;;;;;;10.80;100.00;98927.22;214578;1285;139870;-89
2023/10/21 10:25:10;;;;;;;42.00;26.20;;;;;;;10.92;100.00;98926.89;214996;1285;138944;-94
2023/10/21 10:30:19;;;;;;;44.50;26.40;;;;;;;11.04;100.00;98930.64;214772;1285;140275;-89
2023/10/21 10:35:37;;;;;;;49.60;28.90;;;;;;;11.20;100.00;98931.59;215224;1288;104499;-90
2023/10/21 10:40:41;;;;;;;44.90;26.40;;;;;;;11.32;100.00;98934.15;214495;1285;140416;-89
2023/10/21 10:45:41;;;;;;;44.30;28.40;;;;;;;11.47;100.00;98943.18;214873;1285;139261;-89
2023/10/21 10:50:42;;;;;;;47.50;26.50;;;;;;;11.62;100.00;98944.30;214628;1285;140212;-91
2023/10/21 10:55:47;;;;;;;45.70;27.60;;;;;;;11.74;100.00;98947.73;215089;1286;139776;-89
2023/10/21 11:00:48;;;;;;;42.20;27.50;;;;;;;11.85;100.00;98959.66;214326;1285;141586;-89
2023/10/21 11:05:49;;;;;;;44.90;28.40;;;;;;;11.98;100.00;98974.48;215337;1285;96616;-89
2023/10/21 11:10:53;;;;;;;45.60;30.20;;;;;;;12.04;100.00;98973.88;214722;1288;139897;-91
2023/10/21 11:15:54;;;;;;;46.70;30.90;;;;;;;12.17;100.00;98980.58;215787;1284;138811;-94
2023/10/21 11:20:57;;;;;;;45.60;29.40;;;;;;;12.30;100.00;98986.71;214769;1285;140431;-92
2023/10/21 11:25:59;;;;;;;46.40;29.90;;;;;;;12.44;100.00;98997.24;215425;1288;138918;-90
2023/10/21 11:31:01;;;;;;;47.00;31.60;;;;;;;12.54;100.00;98993.83;214645;1288;139989;-95
2023/10/21 11:36:03;;;;;;;51.30;31.00;;;;;;;12.60;100.00;99002.29;216116;1285;96553;-91
2023/10/21 11:41:11;;;;;;;52.60;32.40;;;;;;;12.66;100.00;99005.73;214796;1285;140493;-93
2023/10/21 11:46:12;;;;;;;50.00;32.90;;;;;;;12.76;100.00;99005.27;214726;1285;139099;-92
2023/10/21 11:51:12;;;;;;;50.40;31.30;;;;;;;12.91;100.00;99013.10;214607;1285;141148;-95
2023/10/21 11:56:51;;;;;;;52.10;33.30;;;;;;;13.03;100.00;99021.38;215004;1285;138997;-91
2023/10/21 12:12:33;;;;;;;52.50;33.30;;;;;;;13.29;100.00;99043.55;214941;1288;140583;-93
2023/10/21 12:38:39;;;;;;;54.30;34.30;;;;;;;13.59;100.00;99083.14;215699;1284;138890;-96
2023/10/21 12:43:41;;;;;;;56.60;34.70;;;;;;;13.67;100.00;99082.16;214420;1285;140692;-91
2023/10/21 12:48:41;;;;;;;55.00;36.00;;;;;;;13.72;100.00;99087.33;215477;1288;139104;-91
2023/10/21 12:53:44;;;;;;;52.60;33.90;;;;;;;13.81;100.00;99100.66;214430;1285;140162;-90
2023/10/21 12:58:45;;;;;;;56.90;35.60;;;;;;;13.89;100.00;99113.02;214635;1285;139384;-88
2023/10/21 13:03:49;;;;;;;52.40;33.60;;;;;;;13.96;100.00;99120.27;214181;1286;140934;-91
2023/10/21 13:08:50;;;;;;;59.70;35.30;;;;;;;14.03;100.00;99124.70;214806;1284;139062;-90
2023/10/21 13:13:51;;;;;;;52.30;35.30;;;;;;;14.08;100.00;99126.94;214075;1285;139831;-89
2023/10/21 13:18:52;;;;;;;51.00;31.90;;;;;;;14.17;100.00;99130.38;214999;1285;138966;-93
2023/10/21 13:23:53;;;;;;;49.70;32.10;;;;;;;14.26;100.00;99138.33;214464;1284;139703;-91
2023/10/21 13:28:54;;;;;;;51.90;31.70;;;;;;;14.33;100.00;99143.04;214780;1285;139115;-90
2023/10/21 13:33:55;;;;;;;49.10;31.30;;;;;;;14.40;100.00;99151.65;214185;1289;139518;-89
2023/10/21 13:38:56;;;;;;;65.90;36.70;;;;;;;14.46;100.00;99145.35;214458;1288;139022;-90
2023/10/21 13:43:58;;;;;;;55.00;35.70;;;;;;;14.53;100.00;99137.88;214076;1285;139966;-90
2023/10/21 13:48:59;;;;;;;60.20;35.50;;;;;;;14.58;100.00;99152.77;214380;1285;139409;-89
2023/10/21 13:54:00;;;;;;;52.80;33.10;;;;;;;14.62;100.00;99162.41;214231;1285;139613;-90
2023/10/21 13:59:01;;;;;;;54.40;33.80;;;;;;;14.64;100.00;99174.08;214585;1289;139146;-89
2023/10/21 14:04:01;;;;;;;58.30;35.70;;;;;;;14.65;100.00;99170.97;214101;1285;140375;-88
2023/10/21 14:09:04;;;;;;;54.30;32.40;;;;;;;14.65;100.00;99169.45;214787;1285;139362;-88
2023/10/21 14:14:05;;;;;;;53.20;32.60;;;;;;;14.67;100.00;99171.39;214496;1286;139900;-91
2023/10/21 14:19:08;;;;;;;49.30;31.50;;;;;;;14.68;100.00;99166.70;214581;1284;139312;-88
2023/10/21 14:24:09;;;;;;;55.70;35.00;;;;;;;14.69;100.00;99155.20;214295;1284;138638;-90
2023/10/21 14:29:11;;;;;;;49.00;29.70;;;;;;;14.70;100.00;99163.63;214193;1289;139989;-89
2023/10/21 14:34:11;;;;;;;51.80;30.10;;;;;;;14.72;100.00;99173.39;214684;1285;138920;-89
2023/10/21 14:39:12;;;;;;;49.30;31.50;;;;;;;14.74;100.00;99189.18;214125;1285;140765;-87
2023/10/21 14:44:12;;;;;;;50.50;29.50;;;;;;;14.74;100.00;99197.15;214577;1287;139268;-89
2023/10/21 14:49:13;;;;;;;49.90;31.20;;;;;;;14.71;100.00;99204.81;214002;1286;140599;-88
2023/10/21 14:54:14;;;;;;;48.20;30.20;;;;;;;14.68;100.00;99204.51;214858;1285;97952;-89
2023/10/21 14:59:14;;;;;;;51.30;30.70;;;;;;;14.64;100.00;99217.36;214333;1288;139774;-87
2023/10/21 15:04:15;;;;;;;46.50;30.00;;;;;;;14.60;100.00;99225.34;214664;1288;139319;-87
2023/10/21 15:09:15;;;;;;;43.00;28.50;;;;;;;14.57;100.00;99231.12;214130;1285;141241;-86
2023/10/21 15:14:16;;;;;;;50.80;31.70;;;;;;;14.48;100.00;99237.45;214891;1285;138885;-86
2023/10/21 15:19:16;;;;;;;53.70;34.40;;;;;;;14.44;100.00;99246.15;214300;1285;140076;-87
2023/10/21 15:24:17;;;;;;;49.90;31.30;;;;;;;14.40;100.00;99259.45;214914;1286;138862;-87
2023/10/21 15:29:18;;;;;;;42.20;29.20;;;;;;;14.34;100.00;99257.21;214432;1288;139902;-87
2023/10/21 15:34:19;;;;;;;44.60;27.90;;;;;;;14.22;100.00;99251.56;214938;1285;138889;-87
2023/10/21 15:39:20;;;;;;;57.80;35.40;;;;;;;14.11;100.00;99257.70;214529;1287;140119;-88
2023/10/21 15:44:22;;;;;;;66.40;37.50;;;;;;;14.04;100.00;99274.45;215054;1288;139562;-88
2023/10/21 15:49:23;;;;;;;107.50;49.40;;;;;;;13.94;100.00;99291.41;214358;1286;139967;-87
2023/10/21 15:54:23;;;;;;;133.80;59.20;;;;;;;13.84;100.00;99290.61;214573;1289;139231;-86
2023/10/21 15:59:24;;;;;;;95.60;48.30;;;;;;;13.75;100.00;99295.91;214308;1289;140974;-87
2023/10/21 16:04:24;;;;;;;72.20;41.90;;;;;;;13.68;100.00;99302.39;214823;1287;138698;-88
2023/10/21 16:09:28;;;;;;;71.80;40.30;;;;;;;13.59;100.00;99303.04;214174;1285;140600;-87
2023/10/21 16:14:28;;;;;;;62.70;38.30;;;;;;;13.47;100.00;99307.05;214922;1285;138822;-87
2023/10/21 16:19:29;;;;;;;75.00;43.80;;;;;;;13.35;100.00;99307.73;214347;1285;140978;-88
2023/10/21 16:24:29;;;;;;;85.60;48.30;;;;;;;13.28;100.00;99309.92;214828;1285;138878;-89
2023/10/21 16:29:30;;;;;;;84.80;48.60;;;;;;;13.19;100.00;99310.00;214356;1285;140502;-89
2023/10/21 16:34:31;;;;;;;71.60;42.70;;;;;;;13.10;100.00;99307.23;214518;1285;138900;-90
2023/10/21 16:39:33;;;;;;;130.40;62.20;;;;;;;13.00;100.00;99308.27;214565;1286;140373;-87
2023/10/21 16:44:34;;;;;;;117.30;59.50;;;;;;;12.91;100.00;99322.29;215042;1284;140016;-88
2023/10/21 16:49:36;;;;;;;79.50;45.70;;;;;;;12.82;100.00;99340.09;214681;1284;140074;-89
2023/10/21 16:54:40;;;;;;;78.50;46.10;;;;;;;12.74;100.00;99342.27;214932;1285;139011;-88
2023/10/21 16:59:41;;;;;;;84.30;46.90;;;;;;;12.67;100.00;99345.67;214611;1284;140115;-87
2023/10/21 17:04:42;;;;;;;92.40;52.90;;;;;;;12.60;100.00;99354.22;215114;1288;138789;-87
2023/10/21 17:09:42;;;;;;;109.20;65.80;;;;;;;12.54;100.00;99365.50;214360;1288;139831;-87
2023/10/21 17:14:43;;;;;;;107.20;63.80;;;;;;;12.47;100.00;99377.90;214637;1285;138984;-87
2023/10/21 17:19:44;;;;;;;90.20;54.90;;;;;;;12.39;100.00;99386.67;214322;1289;140340;-88
2023/10/21 17:24:44;;;;;;;101.20;56.00;;;;;;;12.34;100.00;99399.52;215063;1284;139028;-88
2023/10/21 17:29:45;;;;;;;106.40;64.20;;;;;;;12.26;100.00;99418.45;214442;1285;145204;-89
2023/10/21 17:34:46;;;;;;;94.00;58.30;;;;;;;12.19;100.00;99429.48;215044;1288;139732;-90
2023/10/21 17:39:48;;;;;;;95.30;54.10;;;;;;;12.14;100.00;99439.15;214387;1285;139983;-89
2023/10/21 17:44:49;;;;;;;95.70;55.50;;;;;;;12.08;100.00;99430.41;214880;1288;138857;-89
2023/10/21 17:49:49;;;;;;;89.80;52.90;;;;;;;11.98;100.00;99422.00;214539;1285;140036;-88
2023/10/21 17:54:50;;;;;;;82.90;48.80;;;;;;;11.87;100.00;99434.33;215017;1288;138946;-88
2023/10/21 17:59:50;;;;;;;104.20;59.50;;;;;;;11.80;100.00;99453.15;214515;1285;140250;-89
2023/10/21 18:04:51;;;;;;;95.50;53.20;;;;;;;11.75;100.00;99463.98;215123;1285;139372;-89
2023/10/21 18:09:52;;;;;;;100.90;56.90;;;;;;;11.67;100.00;99462.16;214733;1285;140155;-88
2023/10/21 18:14:53;;;;;;;86.20;52.30;;;;;;;11.63;100.00;99474.80;214802;1286;139137;-88
2023/10/21 18:19:54;;;;;;;82.10;46.60;;;;;;;11.58;100.00;99467.48;214604;1285;140054;-88
2023/10/21 18:24:55;;;;;;;80.60;44.90;;;;;;;11.49;100.00;99457.48;215097;1286;139791;-88
2023/10/21 18:29:56;;;;;;;89.50;52.00;;;;;;;11.37;100.00;99470.40;214496;1286;140829;-89
2023/10/21 18:34:56;;;;;;;75.40;45.40;;;;;;;11.28;100.00;99478.17;214921;1284;139463;-88
2023/10/21 18:39:57;;;;;;;68.70;41.20;;;;;;;11.15;100.00;99477.41;214287;1288;140427;-89
2023/10/21 18:44:58;;;;;;;67.70;42.40;;;;;;;11.00;100.00;99475.61;214906;1288;139637;-88
2023/10/21 18:49:58;;;;;;;112.70;58.50;;;;;;;10.90;100.00;99500.84;214599;1290;256803;-88
2023/10/21 18:54:59;;;;;;;152.00;74.90;;;;;;;10.82;100.00;99516.77;215033;1285;140085;-87
2023/10/21 18:59:59;;;;;;;100.80;53.30;;;;;;;10.76;100.00;99518.60;214549;1286;140432;-87
2023/10/21 19:05:00;;;;;;;96.40;51.10;;;;;;;10.66;100.00;99511.25;214724;1285;139459;-87
2023/10/21 19:10:03;;;;;;;109.50;60.80;;;;;;;10.51;100.00;99510.83;214664;1288;140561;-88
2023/10/21 19:15:04;;;;;;;95.80;52.40;;;;;;;10.45;100.00;99526.65;214649;1288;139313;-86
2023/10/21 19:20:05;;;;;;;105.00;54.60;;;;;;;10.39;100.00;99530.44;214560;1285;140107;-87
2023/10/21 19:25:06;;;;;;;99.60;56.40;;;;;;;10.26;100.00;99528.19;214770;1285;140247;-87
2023/10/21 19:30:08;;;;;;;107.80;57.70;;;;;;;10.16;100.00;99539.98;214424;1286;140629;-87
2023/10/21 19:35:09;;;;;;;106.80;59.90;;;;;;;10.12;100.00;99542.83;215044;1286;139138;-87
2023/10/21 19:40:10;;;;;;;93.10;54.20;;;;;;;10.04;100.00;99542.20;214275;1285;140450;-88
2023/10/21 19:45:11;;;;;;;100.90;54.40;;;;;;;9.94;100.00;99548.08;214820;1291;139193;-87
2023/10/21 19:50:12;;;;;;;102.80;56.00;;;;;;;9.87;100.00;99557.03;215212;1285;139973;-86
2023/10/21 19:55:12;;;;;;;100.10;56.20;;;;;;;9.83;100.00;99548.94;214938;1285;139920;-89
2023/10/21 20:00:15;;;;;;;120.80;61.20;;;;;;;9.81;100.00;99553.65;214182;1286;141403;-88
2023/10/21 20:05:16;;;;;;;119.80;59.90;;;;;;;9.77;100.00;99556.48;214877;1288;138693;-87
2023/10/21 20:10:19;;;;;;;149.80;70.10;;;;;;;9.74;100.00;99554.36;214782;1288;140616;-87
2023/10/21 20:15:20;;;;;;;159.40;78.90;;;;;;;9.70;100.00;99555.45;215030;1289;138975;-87
2023/10/21 20:20:21;;;;;;;166.90;74.40;;;;;;;9.68;100.00;99550.04;214528;1285;139894;-86
2023/10/21 20:25:23;;;;;;;164.80;76.20;;;;;;;9.63;100.00;99559.84;215182;1288;138878;-87
2023/10/21 20:30:25;;;;;;;392.00;137.60;;;;;;;9.58;100.00;99563.69;214918;1288;141813;-89
2023/10/21 20:35:25;;;;;;;131.60;59.80;;;;;;;9.56;100.00;99572.86;215286;1288;99330;-87
2023/10/21 20:40:26;;;;;;;120.00;56.50;;;;;;;9.56;100.00;99565.89;214718;1285;140288;-87
2023/10/21 20:45:27;;;;;;;150.80;63.70;;;;;;;9.52;100.00;99563.67;215259;1288;139381;-88
2023/10/21 20:50:28;;;;;;;109.30;52.80;;;;;;;9.48;100.00;99556.54;214460;1288;140304;-88
2023/10/21 20:55:28;;;;;;;77.80;42.80;;;;;;;9.42;100.00;99548.91;214925;1285;139659;-89
2023/10/21 21:00:29;;;;;;;86.10;40.80;;;;;;;9.34;100.00;99550.95;214712;1288;139767;-88
2023/10/21 21:05:31;;;;;;;167.70;75.90;;;;;;;9.27;100.00;99555.16;215274;1285;98032;-90
2023/10/21 21:10:33;;;;;;;279.20;111.60;;;;;;;9.25;100.00;99553.05;214728;1288;140119;-89
2023/10/21 21:15:34;;;;;;;378.40;127.10;;;;;;;9.26;100.00;99553.13;215286;1286;139320;-89
2023/10/21 21:20:35;;;;;;;108.90;55.10;;;;;;;9.26;100.00;99558.30;214369;1285;140674;-88
2023/10/21 21:25:36;;;;;;;88.00;50.40;;;;;;;9.32;100.00;99560.04;215042;1288;140187;-87
2023/10/21 21:30:36;;;;;;;95.70;51.60;;;;;;;9.38;100.00;99563.97;214267;1285;139941;-88
2023/10/21 21:35:37;;;;;;;102.20;55.90;;;;;;;9.46;100.00;99565.23;214832;1288;98176;-88
2023/10/21 21:40:38;;;;;;;103.70;57.80;;;;;;;9.54;100.00;99552.39;214333;1288;140457;-88
2023/10/21 21:45:38;;;;;;;123.10;66.40;;;;;;;9.58;100.00;99554.91;214866;1288;139428;-89
2023/10/21 21:50:39;;;;;;;107.60;60.10;;;;;;;9.64;100.00;99558.59;214310;1288;140108;-90
2023/10/21 21:55:43;;;;;;;106.80;59.10;;;;;;;9.80;100.00;99557.02;214897;1285;139902;-88
2023/10/21 22:00:46;;;;;;;112.30;63.70;;;;;;;9.97;100.00;99556.16;214752;1288;140197;-88
2023/10/21 22:05:52;;;;;;;141.50;67.90;;;;;;;10.11;100.00;99560.81;215239;1288;106465;-89
2023/10/21 22:10:53;;;;;;;145.90;71.20;;;;;;;10.18;100.00;99557.42;214757;1286;140688;-88
2023/10/21 22:15:55;;;;;;;146.50;71.40;;;;;;;10.24;100.00;99549.02;214623;1288;139328;-88
2023/10/21 22:20:56;;;;;;;119.00;62.60;;;;;;;10.28;100.00;99552.70;214177;1285;141689;-89
2023/10/21 22:25:58;;;;;;;112.70;58.60;;;;;;;10.29;100.00;99556.00;215219;1288;139372;-88
2023/10/21 22:31:03;;;;;;;108.90;56.50;;;;;;;10.37;100.00;99550.09;214540;1289;141777;-90
2023/10/21 22:36:04;;;;;;;106.20;55.90;;;;;;;10.43;100.00;99555.58;215556;1286;111164;-89
2023/10/21 22:41:06;;;;;;;107.10;57.30;;;;;;;10.52;100.00;99558.46;214835;1288;141239;-88
2023/10/21 22:46:07;;;;;;;103.60;55.90;;;;;;;10.58;100.00;99561.59;215357;1288;139101;-89
2023/10/21 22:51:08;;;;;;;101.00;57.10;;;;;;;10.63;100.00;99552.22;214533;1288;140892;-88
2023/10/21 22:56:08;;;;;;;105.30;57.20;;;;;;;10.71;100.00;99552.98;215215;1289;139868;-90